Skip Navigation Links Skip Navigation Links

Current Weather

Chicago Midway, Chicago

For information only: do not use for flight planning or navigation.
Latest weather
Observation time Tuesday, October 19, 2021 2:53 AM CDT
Local time Tuesday, October 19, 2021 3:31 AM CDT
Flight conditions Visual Meteorological Conditions
Winds
Wind direction South-Southwest (210°)
Wind speed 7 mph
Visibility 10 mi.
Sky condition
Ceiling unlimited
Sky clear
Temperature 55°F
Dewpoint 44°F
Altimeter 30.10 in.Hg
Derived measurements
Relative humidity 66%
Density altitude 296 ft.
Sea-level pressure 30.09 in.Hg
Remarks
Automated weather observing station with precipitation discriminator.
METAR KMDW 190753Z 21006KT 10SM CLR 13/07 A3010 RMK AO2 SLP189 T01280067

Settings

Location code

InnerDrive.Weather 4.0.6770.0 Release CLR 4.0.30319.42000
Copyright ©2018 Inner Drive Technology. All rights reserved. Portions Copyright ©1986-2018 David Braverman.

Find weather

Site navigation


Skip Navigation Links

Place info

Page info

PayPal - The safer, easier way to pay online!

Return home.

Copyright ©2021 Inner Drive Technology. Purveyors of fine, hand-crafted computer software. Page printed 2021-10-19T08:31:20 UTC.